Messwerte Hittnau

Temperatur

Temperatur
°C
1527242400 12.00 12.00 22.2
1527246000 13.00 13.00 22.9
1527249600 14.00 14.00 24.4
1527253200 15.00 15.00 25.1
1527256800 16.00 16.00 25.1
1527260400 17.00 17.00 24.4
1527264000 18.00 18.00 24.2
1527267600 19.00 19.00 22.9
1527271200 20.00 20.00 21.7
1527274800 21.00 21.00 19.6
1527278400 22.00 22.00 18.6
1527282000 23.00 23.00 17.8
1527285600 0.00 0.00 16.6
1527289200 1.00 1.00 15.6
1527292800 2.00 2.00 15.7
1527296400 3.00 3.00 15.2
1527300000 4.00 4.00 15.0
1527303600 5.00 5.00 14.5
1527307200 6.00 6.00 14.4
1527310800 7.00 7.00 14.2
1527314400 8.00 8.00 16.1
1527318000 9.00 9.00 18.3
1527321600 10.00 10.00 19.9
1527325200 11.00 11.00 22.9

Wir danken unserem Partner: Hittnau, Am Zimberg

Sonnenschein

Sonnenscheindauer
min
1527242400 12.00 11.00 - 12.00
1527246000 13.00 12.00 - 13.00 25
1527249600 14.00 13.00 - 14.00
1527253200 15.00 14.00 - 15.00 37
1527256800 16.00 15.00 - 16.00 43
1527260400 17.00 16.00 - 17.00
1527264000 18.00 17.00 - 18.00
1527267600 19.00 18.00 - 19.00 54
1527271200 20.00 19.00 - 20.00
1527274800 21.00 20.00 - 21.00
1527278400 22.00 21.00 - 22.00
1527282000 23.00 22.00 - 23.00
1527285600 0.00 23.00 - 0.00 45
1527289200 1.00 0.00 - 1.00
1527292800 2.00 1.00 - 2.00
1527296400 3.00 2.00 - 3.00
1527300000 4.00 3.00 - 4.00
1527303600 5.00 4.00 - 5.00
1527307200 6.00 5.00 - 6.00
1527310800 7.00 6.00 - 7.00 0
1527314400 8.00 7.00 - 8.00 0
1527318000 9.00 8.00 - 9.00
1527321600 10.00 9.00 - 10.00
1527325200 11.00 10.00 - 11.00 14

Aktuellste Messwerte

Wettercharakter
Wetter: sonnig
Temperatur
22.9 °C
Feuchtigkeit
64 %
Wind
5 km/hWindrichtung: Südwest
Böen
13 km/h
Niederschlag
0.0 mm
Sonne
14 min
Luftdruck
1016.0 hPa
Globalstrahlung
643 W/m²
Messzeit: 26. Mai 2018, 11.00Datenquelle: MeteoNews Partner, Hittnau, Am Zimberg

Weitere Messstationen in der Nähe

Messstation Temperatur Entfernung
Seegräben 21.7 °C 5 km
Hörnli 20.3 °C 8 km
Rüti 21.9 °C 12 km
Tänikon 20.5 °C 13 km
Schaubigen bei Egg ZH - 14 km
Feldbach 22.3 °C 15 km
Pfannenstiel 20.3 °C 15 km

Niederschlag

Niederschlagsmenge
mm
1527242400 12.00 11.00 - 12.00
1527246000 13.00 12.00 - 13.00 0.0
1527249600 14.00 13.00 - 14.00 0.0
1527253200 15.00 14.00 - 15.00 0.0
1527256800 16.00 15.00 - 16.00 0.0
1527260400 17.00 16.00 - 17.00 0.0
1527264000 18.00 17.00 - 18.00 0.0
1527267600 19.00 18.00 - 19.00 0.0
1527271200 20.00 19.00 - 20.00 0.0
1527274800 21.00 20.00 - 21.00
1527278400 22.00 21.00 - 22.00 0.0
1527282000 23.00 22.00 - 23.00 0.0
1527285600 0.00 23.00 - 0.00 0.0
1527289200 1.00 0.00 - 1.00 0.0
1527292800 2.00 1.00 - 2.00 0.0
1527296400 3.00 2.00 - 3.00
1527300000 4.00 3.00 - 4.00 0.0
1527303600 5.00 4.00 - 5.00 0.0
1527307200 6.00 5.00 - 6.00 0.0
1527310800 7.00 6.00 - 7.00 0.0
1527314400 8.00 7.00 - 8.00 0.0
1527318000 9.00 8.00 - 9.00 0.0
1527321600 10.00 9.00 - 10.00
1527325200 11.00 10.00 - 11.00 0.0

Wind

Windrichtung Böen Mittelwind
° km/h km/h
1527242400 12.00 11.00 - 12.00 110° 18 5
1527246000 13.00 12.00 - 13.00 160° 18 6
1527249600 14.00 13.00 - 14.00 70° 18 6
1527253200 15.00 14.00 - 15.00 250° 18 6
1527256800 16.00 15.00 - 16.00 160° 18 8
1527260400 17.00 16.00 - 17.00 180° 18 8
1527264000 18.00 17.00 - 18.00 230° 18 6
1527267600 19.00 18.00 - 19.00 160° 16 3
1527271200 20.00 19.00 - 20.00 160° 10 1
1527274800 21.00 20.00 - 21.00 70° 10 1
1527278400 22.00 21.00 - 22.00 70° 13 4
1527282000 23.00 22.00 - 23.00 70° 13 4
1527285600 0.00 23.00 - 0.00 50° 13 4
1527289200 1.00 0.00 - 1.00 50° 13 3
1527292800 2.00 1.00 - 2.00 20° 13 4
1527296400 3.00 2.00 - 3.00 50° 11 1
1527300000 4.00 3.00 - 4.00 50° 6 0
1527303600 5.00 4.00 - 5.00 50° 3 0
1527307200 6.00 5.00 - 6.00 50° 5 1
1527310800 7.00 6.00 - 7.00 50° 6 1
1527314400 8.00 7.00 - 8.00 50° 6 0
1527318000 9.00 8.00 - 9.00 250° 6 2
1527321600 10.00 9.00 - 10.00 200° 8 4
1527325200 11.00 10.00 - 11.00 270° 13 5

Ihre Wetterstation

Fehlt Ihre Wetterstation auf unserem Portal?

Schreiben Sie an network@meteonews.ch

Klima

Wann ist es am wärmsten? Wann regnet es am wenigsten? Unsere Klimadaten geben Auskunft.